createdAt,value
2023-05-17T00:00:11.464Z,101007.35
2023-05-17T00:02:38.687Z,101011.21
2023-05-17T00:05:06.223Z,101007.05
2023-05-17T00:07:33.470Z,101009.58
2023-05-17T00:10:00.569Z,101015.50
2023-05-17T00:12:27.901Z,101011.34
2023-05-17T00:14:55.106Z,101012.95
2023-05-17T00:17:22.201Z,101015.75
2023-05-17T00:19:49.445Z,101015.55
2023-05-17T00:22:16.622Z,101016.91
2023-05-17T00:24:43.821Z,101021.35
2023-05-17T00:27:10.927Z,101024.05
2023-05-17T00:29:38.041Z,101025.48
2023-05-17T00:32:05.492Z,101022.33
2023-05-17T00:34:32.870Z,101025.09
2023-05-17T00:36:59.956Z,101027.51
2023-05-17T00:39:27.188Z,101025.84
2023-05-17T00:41:54.306Z,101030.73
2023-05-17T00:44:21.542Z,101026.67
2023-05-17T00:46:50.689Z,101024.55
2023-05-17T00:49:17.975Z,101024.63
2023-05-17T00:51:45.256Z,101026.10
2023-05-17T00:54:12.621Z,101021.64
2023-05-17T00:56:39.863Z,101018.44
2023-05-17T00:59:07.119Z,101017.32
2023-05-17T01:01:35.830Z,101010.60
2023-05-17T01:04:03.222Z,101015.80
2023-05-17T01:06:31.057Z,101012.84
2023-05-17T01:08:58.371Z,101016.49
2023-05-17T01:11:44.899Z,101014.33
2023-05-17T01:14:21.564Z,101015.84
2023-05-17T01:16:59.674Z,101016.58
2023-05-17T01:19:27.001Z,101014.09
2023-05-17T01:22:11.181Z,101017.64
2023-05-17T01:24:50.809Z,101017.73
2023-05-17T01:27:18.058Z,101018.16
2023-05-17T01:29:45.263Z,101017.92
2023-05-17T01:32:13.372Z,101023.27
2023-05-17T01:34:40.634Z,101019.52
2023-05-17T01:37:07.852Z,101015.27
2023-05-17T01:39:36.466Z,101013.39
2023-05-17T01:42:08.304Z,101016.19
2023-05-17T01:44:41.327Z,101014.15
2023-05-17T01:47:31.060Z,101015.85
2023-05-17T01:49:58.526Z,101016.30
2023-05-17T01:52:32.239Z,101015.88
2023-05-17T01:55:09.272Z,101018.27
2023-05-17T01:57:37.962Z,101023.33
2023-05-17T02:00:07.030Z,101029.26
2023-05-17T02:02:41.754Z,101032.96
2023-05-17T02:05:09.388Z,101030.69
2023-05-17T02:07:40.226Z,101030.27
2023-05-17T02:10:07.826Z,101029.44
2023-05-17T02:12:36.621Z,101034.52
2023-05-17T02:15:04.132Z,101036.52
2023-05-17T02:17:36.686Z,101036.92
2023-05-17T02:20:07.853Z,101037.52
2023-05-17T02:22:35.924Z,101042.34
2023-05-17T02:25:03.366Z,101044.74
2023-05-17T02:27:31.703Z,101044.21
2023-05-17T02:30:03.951Z,101049.19
2023-05-17T02:32:32.723Z,101048.48
2023-05-17T02:35:00.156Z,101049.51
2023-05-17T02:37:27.489Z,101053.41
2023-05-17T02:39:54.802Z,101057.52
2023-05-17T02:42:22.018Z,101061.20
2023-05-17T02:44:53.251Z,101062.45
2023-05-17T02:47:23.852Z,101063.02
2023-05-17T02:49:51.070Z,101065.24
2023-05-17T02:52:18.446Z,101062.62
2023-05-17T02:54:45.814Z,101063.29
2023-05-17T02:57:13.257Z,101073.73
2023-05-17T02:59:40.625Z,101072.70
2023-05-17T03:02:07.951Z,101076.83
2023-05-17T03:04:35.331Z,101076.71
2023-05-17T03:07:05.829Z,101081.84
2023-05-17T03:09:37.902Z,101085.59
2023-05-17T03:12:05.953Z,101088.45
2023-05-17T03:14:35.014Z,101089.54
2023-05-17T03:17:03.048Z,101095.64
2023-05-17T03:19:31.437Z,101093.85
2023-05-17T03:21:59.277Z,101094.57
2023-05-17T03:24:26.676Z,101092.63
2023-05-17T03:26:54.023Z,101091.95
2023-05-17T03:29:22.792Z,101100.86
2023-05-17T03:31:50.673Z,101096.58
2023-05-17T03:34:17.947Z,101101.88
2023-05-17T03:36:45.353Z,101104.73
2023-05-17T03:39:12.675Z,101106.20
2023-05-17T03:41:42.502Z,101099.99
2023-05-17T03:44:10.944Z,101107.36
2023-05-17T03:46:41.401Z,101109.23
2023-05-17T03:49:09.695Z,101112.36
2023-05-17T03:51:38.298Z,101112.52
2023-05-17T03:54:05.712Z,101115.67
2023-05-17T03:56:33.077Z,101111.39
2023-05-17T03:59:00.717Z,101118.52
2023-05-17T04:01:28.020Z,101117.81
2023-05-17T04:03:55.292Z,101122.22
2023-05-17T04:06:23.439Z,101123.09
2023-05-17T04:08:51.674Z,101124.52
2023-05-17T04:11:24.014Z,101123.48
2023-05-17T04:13:51.958Z,101122.52
2023-05-17T04:16:19.609Z,101127.83
2023-05-17T04:18:47.937Z,101127.72
2023-05-17T04:21:15.421Z,101127.04
2023-05-17T04:23:42.839Z,101126.66
2023-05-17T04:26:10.920Z,101126.81
2023-05-17T04:28:39.724Z,101127.25
2023-05-17T04:31:08.730Z,101129.45
2023-05-17T04:33:37.034Z,101126.67
2023-05-17T04:36:06.719Z,101130.55
2023-05-17T04:38:34.693Z,101128.73
2023-05-17T04:41:03.535Z,101133.09
2023-05-17T04:43:33.997Z,101133.80
2023-05-17T04:46:06.242Z,101135.36
2023-05-17T04:48:33.841Z,101137.09
2023-05-17T04:51:02.675Z,101136.69
2023-05-17T04:53:30.099Z,101140.95
2023-05-17T04:55:58.278Z,101143.16
2023-05-17T04:58:25.880Z,101145.94
2023-05-17T05:00:56.469Z,101149.86
2023-05-17T05:03:24.279Z,101150.55
2023-05-17T05:05:51.938Z,101150.87
2023-05-17T05:08:19.152Z,101150.92
2023-05-17T05:10:46.609Z,101152.61
2023-05-17T05:13:14.333Z,101151.74
2023-05-17T05:15:41.820Z,101158.08
2023-05-17T05:18:09.116Z,101157.88
2023-05-17T05:20:37.511Z,101156.94
2023-05-17T05:23:06.415Z,101155.06
2023-05-17T05:25:34.555Z,101157.48
2023-05-17T05:28:02.319Z,101158.30
2023-05-17T05:30:29.956Z,101165.27
2023-05-17T05:32:57.769Z,101164.04
2023-05-17T05:35:30.667Z,101168.56
2023-05-17T05:37:58.941Z,101171.79
2023-05-17T05:40:26.518Z,101169.31
2023-05-17T05:42:54.380Z,101170.64
2023-05-17T05:45:22.367Z,101168.19
2023-05-17T05:47:51.201Z,101173.46
2023-05-17T05:50:19.116Z,101169.70
2023-05-17T05:52:48.810Z,101172.23
2023-05-17T05:55:36.833Z,101168.89
2023-05-17T05:58:04.385Z,101174.02
2023-05-17T06:00:52.715Z,101166.54
2023-05-17T06:03:30.203Z,101166.77
2023-05-17T06:06:00.472Z,101162.21
2023-05-17T06:08:48.051Z,101157.93
2023-05-17T06:11:15.472Z,101156.12
2023-05-17T06:13:43.558Z,101159.87
2023-05-17T06:16:11.589Z,101155.83
2023-05-17T06:18:39.055Z,101161.90
2023-05-17T06:21:06.649Z,101162.23
2023-05-17T06:23:35.618Z,101156.73
2023-05-17T06:26:02.990Z,101159.94
2023-05-17T06:28:30.131Z,101157.96
2023-05-17T06:30:57.239Z,101161.59
2023-05-17T06:33:24.498Z,101162.08
2023-05-17T06:35:56.592Z,101161.52
2023-05-17T06:38:25.062Z,101166.30
2023-05-17T06:40:55.568Z,101161.48
2023-05-17T06:43:22.914Z,101156.43
2023-05-17T06:45:53.479Z,101158.25
2023-05-17T06:48:21.322Z,101161.30
2023-05-17T06:50:49.310Z,101162.21
2023-05-17T06:53:16.420Z,101158.19
2023-05-17T06:55:43.616Z,101160.31
2023-05-17T06:58:11.003Z,101164.84
2023-05-17T07:00:38.495Z,101164.69
2023-05-17T07:03:07.269Z,101169.63
2023-05-17T07:05:35.007Z,101166.06
2023-05-17T07:08:02.386Z,101166.94
2023-05-17T07:10:29.810Z,101153.36
2023-05-17T07:12:57.217Z,101160.38
2023-05-17T07:15:24.637Z,101161.48
2023-05-17T07:17:52.438Z,101167.45
2023-05-17T07:20:20.602Z,101161.63
2023-05-17T07:22:49.683Z,101165.58
2023-05-17T07:25:22.373Z,101157.68
2023-05-17T07:27:51.279Z,101172.31
2023-05-17T07:30:19.125Z,101158.73
2023-05-17T07:32:46.683Z,101162.86
2023-05-17T07:35:21.836Z,101164.30
2023-05-17T07:37:50.706Z,101158.41
2023-05-17T07:40:28.534Z,101153.99
2023-05-17T07:42:57.783Z,101155.48
2023-05-17T07:45:55.098Z,101162.05
2023-05-17T07:48:24.179Z,101163.46
2023-05-17T07:51:07.079Z,101165.48
2023-05-17T07:53:43.349Z,101155.91
2023-05-17T08:00:18.937Z,101159.88
2023-05-17T08:03:22.270Z,101162.63
2023-05-17T08:06:10.837Z,101158.62
2023-05-17T08:08:54.301Z,101168.02
2023-05-17T08:11:24.378Z,101164.38
2023-05-17T08:13:52.809Z,101158.93
2023-05-17T08:16:20.429Z,101151.50
2023-05-17T08:18:48.966Z,101160.23
2023-05-17T08:21:16.424Z,101153.92
2023-05-17T08:23:44.096Z,101154.06
2023-05-17T08:26:13.359Z,101163.30
2023-05-17T08:28:41.164Z,101152.45
2023-05-17T08:31:08.587Z,101146.91
2023-05-17T08:33:36.811Z,101145.63
2023-05-17T08:36:11.135Z,101149.70
2023-05-17T08:38:38.642Z,101146.41
2023-05-17T08:41:05.996Z,101140.01
2023-05-17T08:43:33.419Z,101137.79
2023-05-17T08:46:00.786Z,101136.45
2023-05-17T08:48:31.633Z,101140.60
2023-05-17T08:51:00.495Z,101140.80
2023-05-17T08:53:28.065Z,101136.47
2023-05-17T08:56:00.999Z,101132.60
2023-05-17T08:58:35.977Z,101136.88
2023-05-17T09:01:10.109Z,101122.91
2023-05-17T09:03:38.018Z,101123.40
2023-05-17T09:06:05.943Z,101131.98
2023-05-17T09:08:34.146Z,101127.73
2023-05-17T09:11:01.394Z,101124.22
2023-05-17T09:13:28.660Z,101124.05
2023-05-17T09:15:56.286Z,101117.95
2023-05-17T09:18:33.318Z,101116.49
2023-05-17T09:21:05.494Z,101119.52
2023-05-17T09:23:36.161Z,101103.83
2023-05-17T09:26:08.734Z,101114.54
2023-05-17T09:28:42.652Z,101105.73
2023-05-17T09:31:13.112Z,101105.56
2023-05-17T09:33:48.096Z,101107.70
2023-05-17T09:36:19.212Z,101103.78
2023-05-17T09:38:56.645Z,101104.98
2023-05-17T09:41:27.088Z,101101.19
2023-05-17T09:43:55.311Z,101096.87
2023-05-17T09:46:22.673Z,101095.15
2023-05-17T09:48:54.166Z,101100.34
2023-05-17T09:51:51.857Z,101097.30
2023-05-17T09:54:19.567Z,101105.77
2023-05-17T09:56:53.580Z,101097.20
2023-05-17T09:59:21.595Z,101089.70
2023-05-17T10:01:50.524Z,101088.16
2023-05-17T10:04:20.830Z,101090.70
2023-05-17T10:06:51.689Z,101100.02
2023-05-17T10:09:22.886Z,101112.20
2023-05-17T10:11:50.987Z,101107.58
2023-05-17T10:14:23.396Z,101094.69
2023-05-17T10:16:51.290Z,101094.66
2023-05-17T10:19:20.830Z,101090.23
2023-05-17T10:21:48.955Z,101084.30
2023-05-17T10:24:16.715Z,101082.81
2023-05-17T10:26:44.140Z,101082.78
2023-05-17T10:29:11.507Z,101089.36
2023-05-17T10:31:38.926Z,101090.52
2023-05-17T10:34:07.030Z,101095.91
2023-05-17T10:36:34.557Z,101087.81
2023-05-17T10:39:02.576Z,101082.13
2023-05-17T10:41:31.701Z,101080.14
2023-05-17T10:43:59.076Z,101070.13
2023-05-17T10:46:26.408Z,101062.53
2023-05-17T10:48:54.273Z,101070.96
2023-05-17T10:51:25.382Z,101073.36
2023-05-17T10:54:12.931Z,101064.27
2023-05-17T10:56:47.892Z,101062.19
2023-05-17T10:59:18.856Z,101065.29
2023-05-17T11:02:05.515Z,101060.94
2023-05-17T11:04:34.752Z,101062.66
2023-05-17T11:07:29.866Z,101058.77
2023-05-17T11:10:00.856Z,101050.11
2023-05-17T11:12:30.700Z,101059.14
2023-05-17T11:14:59.169Z,101044.46
2023-05-17T11:17:47.257Z,101041.34
2023-05-17T11:20:16.457Z,101044.85
2023-05-17T11:22:44.457Z,101046.27
2023-05-17T11:25:12.807Z,101043.58
2023-05-17T11:27:44.119Z,101040.61
2023-05-17T11:30:30.038Z,101041.30
2023-05-17T11:33:01.749Z,101037.52
2023-05-17T11:35:31.839Z,101031.01
2023-05-17T11:38:18.040Z,101031.51
2023-05-17T11:40:46.044Z,101035.73
2023-05-17T11:43:13.521Z,101028.38
2023-05-17T11:45:53.907Z,101019.98
2023-05-17T11:48:22.802Z,101031.63
2023-05-17T11:50:51.654Z,101017.84
2023-05-17T11:53:30.702Z,101010.66
2023-05-17T11:55:58.164Z,101011.27
2023-05-17T11:58:25.999Z,101016.78
2023-05-17T12:00:54.547Z,101003.34
2023-05-17T12:03:21.897Z,101006.52
2023-05-17T12:05:50.296Z,101004.45
2023-05-17T12:08:19.224Z,100987.19
2023-05-17T12:10:47.943Z,100988.36
2023-05-17T12:13:15.408Z,100979.35
2023-05-17T12:15:44.972Z,100991.23
2023-05-17T12:18:12.684Z,100986.73
2023-05-17T12:20:40.280Z,100996.03
2023-05-17T12:23:07.712Z,100979.79
2023-05-17T12:25:35.301Z,100974.14
2023-05-17T12:28:23.091Z,100964.84
2023-05-17T12:30:54.334Z,100988.49
2023-05-17T12:33:22.115Z,100977.43
2023-05-17T12:35:49.760Z,100970.73
2023-05-17T12:38:17.949Z,100961.08
2023-05-17T12:40:45.975Z,100971.91
2023-05-17T12:43:13.318Z,100969.72
2023-05-17T12:45:41.964Z,100971.50
2023-05-17T12:48:09.610Z,100959.23
2023-05-17T12:50:37.308Z,100960.09
2023-05-17T12:53:10.217Z,100963.13
2023-05-17T12:55:38.283Z,100962.31
2023-05-17T12:58:05.824Z,100959.28
2023-05-17T13:00:33.137Z,100959.88
2023-05-17T13:03:01.614Z,100970.41
2023-05-17T13:05:29.179Z,100962.05
2023-05-17T13:07:56.586Z,100960.92
2023-05-17T13:10:28.096Z,100952.98
2023-05-17T13:12:57.542Z,100953.80
2023-05-17T13:15:29.254Z,100952.41
2023-05-17T13:17:56.869Z,100954.86
2023-05-17T13:20:24.646Z,100961.67
2023-05-17T13:22:52.116Z,100954.56
2023-05-17T13:25:19.850Z,100953.80
2023-05-17T13:27:49.644Z,100953.92
2023-05-17T13:30:17.028Z,100960.73
2023-05-17T13:32:44.771Z,100955.73
2023-05-17T13:35:12.589Z,100949.31
2023-05-17T13:37:40.174Z,100947.48
2023-05-17T13:40:09.067Z,100955.36
2023-05-17T13:42:37.440Z,100956.19
2023-05-17T13:45:04.999Z,100948.77
2023-05-17T13:47:33.448Z,100947.06
2023-05-17T13:50:01.527Z,100949.67
2023-05-17T13:52:29.611Z,100949.62
2023-05-17T13:54:57.324Z,100942.29
2023-05-17T13:57:25.084Z,100940.65
2023-05-17T13:59:52.500Z,100938.36
2023-05-17T14:02:19.925Z,100939.02
2023-05-17T14:04:47.440Z,100938.31
2023-05-17T14:07:30.644Z,100945.10
2023-05-17T14:09:59.002Z,100943.02
2023-05-17T14:12:26.644Z,100931.97
2023-05-17T14:14:55.443Z,100931.29
2023-05-17T14:17:23.598Z,100925.95
2023-05-17T14:19:53.740Z,100928.73
2023-05-17T14:22:43.563Z,100929.77
2023-05-17T14:25:12.611Z,100925.94
2023-05-17T14:27:43.178Z,100919.89
2023-05-17T14:30:39.644Z,100922.84
2023-05-17T14:36:52.183Z,100922.46
2023-05-17T14:39:22.722Z,100918.61
2023-05-17T14:41:50.989Z,100918.60
2023-05-17T14:44:18.550Z,100919.97
2023-05-17T14:46:46.214Z,100917.77
2023-05-17T14:49:15.537Z,100916.73
2023-05-17T14:51:43.524Z,100917.15
2023-05-17T14:54:13.422Z,100908.11
2023-05-17T14:56:43.537Z,100917.16
2023-05-17T14:59:11.067Z,100907.43
2023-05-17T15:01:38.394Z,100916.30
2023-05-17T15:04:05.752Z,100917.64
2023-05-17T15:06:33.318Z,100916.25
2023-05-17T15:09:02.473Z,100912.15
2023-05-17T15:11:29.928Z,100911.11
2023-05-17T15:13:57.704Z,100911.51
2023-05-17T15:16:25.105Z,100918.83
2023-05-17T15:18:53.370Z,100910.80
2023-05-17T15:21:22.231Z,100914.27
2023-05-17T15:23:50.988Z,100912.95
2023-05-17T15:26:18.253Z,100912.48
2023-05-17T15:28:45.588Z,100915.25
2023-05-17T15:31:13.023Z,100909.03
2023-05-17T15:33:42.751Z,100910.02
2023-05-17T15:36:11.230Z,100906.04
2023-05-17T15:38:39.878Z,100907.06
2023-05-17T15:41:08.518Z,100911.83
2023-05-17T15:43:36.322Z,100918.91
2023-05-17T15:46:03.805Z,100922.02
2023-05-17T15:48:31.358Z,100916.02
2023-05-17T15:50:58.928Z,100913.76
2023-05-17T15:53:26.640Z,100918.25
2023-05-17T15:55:54.321Z,100913.80
2023-05-17T15:58:22.132Z,100910.06
2023-05-17T16:00:49.451Z,100913.56
2023-05-17T16:03:16.870Z,100916.77
2023-05-17T16:05:44.171Z,100913.70
2023-05-17T16:08:12.635Z,100915.02
2023-05-17T16:10:40.004Z,100914.63
2023-05-17T16:13:08.554Z,100914.48
2023-05-17T16:15:36.955Z,100913.49
2023-05-17T16:18:04.455Z,100913.83
2023-05-17T16:20:32.637Z,100909.86
2023-05-17T16:23:01.057Z,100913.19
2023-05-17T16:25:29.832Z,100914.11
2023-05-17T16:28:01.906Z,100912.31
2023-05-17T16:30:31.917Z,100914.59
2023-05-17T16:32:59.356Z,100914.02
2023-05-17T16:35:29.462Z,100919.39
2023-05-17T16:37:57.232Z,100922.30
2023-05-17T16:40:24.877Z,100920.13
2023-05-17T16:42:52.118Z,100926.25
2023-05-17T16:45:19.456Z,100929.04
2023-05-17T16:47:46.897Z,100928.70
2023-05-17T16:50:14.173Z,100930.65
2023-05-17T16:52:41.392Z,100932.90
2023-05-17T16:55:09.895Z,100934.44
2023-05-17T16:57:37.209Z,100936.66
2023-05-17T17:00:04.733Z,100937.36
2023-05-17T17:02:32.146Z,100940.33
2023-05-17T17:04:59.501Z,100935.91
2023-05-17T17:07:26.766Z,100936.30
2023-05-17T17:09:54.067Z,100936.58
2023-05-17T17:12:25.456Z,100944.77
2023-05-17T17:14:57.737Z,100943.27
2023-05-17T17:17:25.152Z,100947.60
2023-05-17T17:19:53.324Z,100944.02
2023-05-17T17:22:20.575Z,100944.27
2023-05-17T17:24:48.420Z,100946.17
2023-05-17T17:27:15.760Z,100947.05
2023-05-17T17:29:43.250Z,100951.02
2023-05-17T17:32:10.576Z,100956.88
2023-05-17T17:34:39.099Z,100953.56
2023-05-17T17:37:06.380Z,100956.05
2023-05-17T17:39:33.663Z,100955.78
2023-05-17T17:42:01.783Z,100959.95
2023-05-17T17:44:29.189Z,100957.34
2023-05-17T17:46:56.724Z,100956.61
2023-05-17T17:49:24.029Z,100958.14
2023-05-17T17:51:51.638Z,100957.30
2023-05-17T17:54:18.934Z,100956.09
2023-05-17T17:56:46.315Z,100955.26
2023-05-17T17:59:13.783Z,100953.95
2023-05-17T18:01:41.133Z,100954.41
2023-05-17T18:04:09.735Z,100952.05
2023-05-17T18:06:38.287Z,100952.30
2023-05-17T18:09:05.911Z,100952.89
2023-05-17T18:11:33.298Z,100953.41
2023-05-17T18:14:02.719Z,100950.84
2023-05-17T18:16:31.042Z,100951.02
2023-05-17T18:18:58.611Z,100954.89
2023-05-17T18:21:26.009Z,100952.29
2023-05-17T18:23:53.419Z,100952.47
2023-05-17T18:26:21.705Z,100953.77
2023-05-17T18:28:49.209Z,100956.09
2023-05-17T18:31:18.972Z,100956.63
2023-05-17T18:33:46.576Z,100952.35
2023-05-17T18:36:14.093Z,100949.65
2023-05-17T18:38:41.651Z,100949.45
2023-05-17T18:41:09.194Z,100947.74
2023-05-17T18:43:36.628Z,100950.92
2023-05-17T18:46:04.150Z,100953.70
2023-05-17T18:48:36.271Z,100955.16
2023-05-17T18:51:03.540Z,100950.50
2023-05-17T18:53:30.856Z,100951.23
2023-05-17T18:56:01.716Z,100950.80
2023-05-17T18:58:29.379Z,100949.83
2023-05-17T19:00:56.766Z,100950.33
2023-05-17T19:03:24.157Z,100945.06
2023-05-17T19:05:51.305Z,100943.38
2023-05-17T19:08:18.680Z,100943.99
2023-05-17T19:10:45.897Z,100945.82
2023-05-17T19:13:14.061Z,100942.83
2023-05-17T19:15:41.929Z,100938.03
2023-05-17T19:18:09.121Z,100938.77
2023-05-17T19:20:36.230Z,100938.40
2023-05-17T19:23:03.880Z,100941.30
2023-05-17T19:25:31.908Z,100940.13
2023-05-17T19:27:59.565Z,100937.48
2023-05-17T19:30:27.052Z,100937.45
2023-05-17T19:32:54.481Z,100937.49
2023-05-17T19:35:21.822Z,100940.30
2023-05-17T19:37:48.954Z,100940.98
2023-05-17T19:40:19.037Z,100941.84
2023-05-17T19:42:47.183Z,100940.11
2023-05-17T19:45:14.799Z,100935.20
2023-05-17T19:47:42.298Z,100936.55
2023-05-17T19:50:09.792Z,100939.30
2023-05-17T19:52:37.020Z,100938.58
2023-05-17T19:55:04.519Z,100936.29
2023-05-17T19:57:32.244Z,100937.68
2023-05-17T19:59:59.302Z,100941.00
2023-05-17T20:02:26.678Z,100944.02
2023-05-17T20:04:54.402Z,100941.55
2023-05-17T20:07:26.087Z,100943.52
2023-05-17T20:09:53.784Z,100939.30
2023-05-17T20:12:21.141Z,100938.11
2023-05-17T20:14:48.376Z,100936.37
2023-05-17T20:17:15.525Z,100937.71
2023-05-17T20:19:42.752Z,100941.31
2023-05-17T20:22:10.007Z,100941.52
2023-05-17T20:24:37.362Z,100941.92
2023-05-17T20:27:04.532Z,100938.22
2023-05-17T20:29:32.128Z,100944.48
2023-05-17T20:31:59.352Z,100943.77
2023-05-17T20:34:29.517Z,100944.23
2023-05-17T20:36:56.984Z,100950.46
2023-05-17T20:39:28.187Z,100954.80
2023-05-17T20:41:57.101Z,100950.81
2023-05-17T20:44:26.078Z,100945.52
2023-05-17T20:46:54.511Z,100947.16
2023-05-17T20:49:22.175Z,100947.38
2023-05-17T20:51:49.348Z,100946.13
2023-05-17T20:54:16.622Z,100949.95
2023-05-17T20:56:43.953Z,100948.67
2023-05-17T20:59:11.648Z,100946.14
2023-05-17T21:01:39.132Z,100946.09
2023-05-17T21:04:06.834Z,100948.50
2023-05-17T21:06:34.672Z,100946.84
2023-05-17T21:09:02.893Z,100944.30
2023-05-17T21:11:30.191Z,100947.23
2023-05-17T21:14:00.276Z,100946.52
2023-05-17T21:16:27.526Z,100944.64
2023-05-17T21:18:54.798Z,100942.97
2023-05-17T21:21:21.872Z,100941.58
2023-05-17T21:23:49.205Z,100944.43
2023-05-17T21:26:16.476Z,100941.96
2023-05-17T21:28:43.669Z,100948.23
2023-05-17T21:31:11.407Z,100945.92
2023-05-17T21:33:38.831Z,100942.08
2023-05-17T21:36:06.370Z,100946.31
2023-05-17T21:38:33.621Z,100945.52
2023-05-17T21:41:01.006Z,100948.27
2023-05-17T21:43:28.190Z,100951.27
2023-05-17T21:45:55.412Z,100950.77
2023-05-17T21:48:23.210Z,100950.02
2023-05-17T21:50:50.381Z,100951.29
2023-05-17T21:53:17.505Z,100952.28
2023-05-17T21:55:56.897Z,100950.02
2023-05-17T21:58:29.083Z,100950.35
2023-05-17T22:00:56.525Z,100948.61
2023-05-17T22:03:24.031Z,100947.16
2023-05-17T22:05:52.689Z,100944.18
2023-05-17T22:08:19.918Z,100939.56
2023-05-17T22:10:47.827Z,100937.74
2023-05-17T22:13:18.493Z,100939.09
2023-05-17T22:15:46.000Z,100938.22
2023-05-17T22:18:14.034Z,100935.75
2023-05-17T22:20:41.317Z,100937.35
2023-05-17T22:23:08.556Z,100932.81
2023-05-17T22:25:36.260Z,100933.42
2023-05-17T22:28:03.824Z,100931.05
2023-05-17T22:30:31.062Z,100928.36
2023-05-17T22:32:58.836Z,100928.55
2023-05-17T22:35:26.715Z,100926.17
2023-05-17T22:37:53.919Z,100926.59
2023-05-17T22:40:21.790Z,100928.20
2023-05-17T22:42:50.427Z,100924.13
2023-05-17T22:45:18.618Z,100925.86
2023-05-17T22:47:47.478Z,100925.88
2023-05-17T22:50:16.022Z,100926.61
2023-05-17T22:52:43.280Z,100929.16
2023-05-17T22:55:11.593Z,100928.80
2023-05-17T22:57:38.820Z,100930.59
2023-05-17T23:00:08.967Z,100932.69
2023-05-17T23:02:36.549Z,100926.98
2023-05-17T23:05:03.962Z,100930.80
2023-05-17T23:07:37.214Z,100931.86
2023-05-17T23:10:05.459Z,100933.29
2023-05-17T23:12:33.524Z,100933.38
2023-05-17T23:15:00.745Z,100929.94
2023-05-17T23:17:32.722Z,100931.58
2023-05-17T23:20:07.141Z,100929.51
2023-05-17T23:22:34.657Z,100934.37
2023-05-17T23:25:03.759Z,100930.36
2023-05-17T23:27:30.902Z,100932.46
2023-05-17T23:29:58.761Z,100930.73
2023-05-17T23:32:26.021Z,100932.23
2023-05-17T23:35:04.154Z,100935.22
2023-05-17T23:37:34.590Z,100935.34
2023-05-17T23:40:01.918Z,100932.95
2023-05-17T23:42:35.165Z,100934.15
2023-05-17T23:45:02.716Z,100935.95
2023-05-17T23:47:29.755Z,100932.61
2023-05-17T23:49:57.081Z,100935.04
2023-05-17T23:52:24.717Z,100934.93
2023-05-17T23:54:51.773Z,100934.21
2023-05-17T23:57:18.931Z,100936.36
2023-05-17T23:59:46.271Z,100939.59
